createdAt,value
2022-08-17T00:02:21.773Z,3.77
2022-08-17T00:05:33.273Z,3.25
2022-08-17T00:08:45.428Z,3.53
2022-08-17T00:12:42.055Z,3.63
2022-08-17T00:15:14.350Z,3.33
2022-08-17T00:19:01.851Z,2.67
2022-08-17T00:22:30.762Z,2.97
2022-08-17T00:25:17.723Z,2.60
2022-08-17T00:28:21.218Z,2.55
2022-08-17T00:31:24.819Z,3.15
2022-08-17T00:34:28.059Z,3.13
2022-08-17T00:37:35.169Z,2.55
2022-08-17T00:40:59.303Z,3.08
2022-08-17T00:44:05.684Z,2.95
2022-08-17T00:47:08.901Z,2.70
2022-08-17T00:50:16.102Z,1.77
2022-08-17T00:53:20.280Z,2.47
2022-08-17T00:56:31.355Z,2.65
2022-08-17T00:59:43.405Z,3.42
2022-08-17T01:02:48.098Z,3.75
2022-08-17T01:05:54.964Z,2.60
2022-08-17T01:09:01.455Z,3.40
2022-08-17T01:12:08.455Z,3.35
2022-08-17T01:15:12.317Z,3.75
2022-08-17T01:18:16.600Z,2.20
2022-08-17T01:21:38.522Z,1.93
2022-08-17T01:24:45.289Z,2.15
2022-08-17T01:27:49.278Z,2.03
2022-08-17T01:30:56.862Z,2.05
2022-08-17T01:34:07.112Z,3.10
2022-08-17T01:37:11.625Z,2.60
2022-08-17T01:40:59.228Z,3.30
2022-08-17T01:44:05.520Z,3.60
2022-08-17T01:47:08.780Z,3.40
2022-08-17T01:50:15.938Z,3.60
2022-08-17T01:53:25.620Z,3.67
2022-08-17T01:56:30.312Z,3.63
2022-08-17T01:59:33.769Z,3.60
2022-08-17T02:02:37.153Z,3.50
2022-08-17T02:05:40.951Z,3.78
2022-08-17T02:09:03.224Z,3.70
2022-08-17T02:12:38.226Z,3.75
2022-08-17T02:15:30.837Z,3.65
2022-08-17T02:18:34.436Z,3.55
2022-08-17T02:21:39.135Z,3.50
2022-08-17T02:25:00.689Z,3.57
2022-08-17T02:28:05.601Z,3.60
2022-08-17T02:31:12.550Z,3.45
2022-08-17T02:34:16.145Z,3.50
2022-08-17T02:37:19.684Z,3.75
2022-08-17T02:40:36.330Z,3.60
2022-08-17T02:43:39.944Z,3.70
2022-08-17T02:46:45.500Z,3.30
2022-08-17T02:49:55.599Z,3.47
2022-08-17T02:53:01.730Z,3.60
2022-08-17T02:56:05.899Z,3.27
2022-08-17T02:59:09.040Z,3.30
2022-08-17T03:02:13.153Z,3.05
2022-08-17T03:05:22.090Z,3.50
2022-08-17T03:08:25.588Z,3.53
2022-08-17T03:11:28.886Z,3.50
2022-08-17T03:14:32.473Z,3.55
2022-08-17T03:17:35.907Z,3.60
2022-08-17T03:20:40.415Z,3.10
2022-08-17T03:23:43.547Z,2.97
2022-08-17T03:26:49.166Z,2.90
2022-08-17T03:29:52.291Z,3.40
2022-08-17T03:32:58.583Z,3.20
2022-08-17T03:36:01.692Z,3.83
2022-08-17T03:39:05.518Z,3.38
2022-08-17T03:42:14.315Z,3.63
2022-08-17T03:45:54.900Z,3.70
2022-08-17T03:49:16.652Z,3.85
2022-08-17T03:52:38.496Z,3.78
2022-08-17T03:56:00.872Z,3.90
2022-08-17T03:59:04.147Z,3.57
2022-08-17T04:02:25.213Z,3.65
2022-08-17T04:05:28.416Z,3.90
2022-08-17T04:08:32.645Z,4.20
2022-08-17T04:11:36.764Z,3.85
2022-08-17T04:14:52.568Z,3.83
2022-08-17T04:17:57.151Z,3.50
2022-08-17T04:21:03.180Z,3.78
2022-08-17T04:24:06.763Z,3.90
2022-08-17T04:27:10.185Z,3.75
2022-08-17T04:30:13.776Z,4.00
2022-08-17T04:33:20.139Z,4.05
2022-08-17T04:36:23.382Z,3.97
2022-08-17T04:39:29.096Z,3.70
2022-08-17T04:42:32.359Z,3.92
2022-08-17T04:45:40.447Z,4.30
2022-08-17T04:48:59.044Z,3.80
2022-08-17T04:52:04.599Z,4.80
2022-08-17T04:55:08.477Z,6.15
2022-08-17T04:58:11.961Z,4.20
2022-08-17T05:01:17.306Z,4.03
2022-08-17T05:04:33.452Z,4.18
2022-08-17T05:07:38.416Z,2.95
2022-08-17T05:10:45.591Z,3.80
2022-08-17T05:13:52.165Z,3.47
2022-08-17T05:16:55.332Z,3.30
2022-08-17T05:19:58.462Z,3.83
2022-08-17T05:23:07.404Z,3.28
2022-08-17T05:26:22.004Z,3.78
2022-08-17T05:29:35.127Z,4.32
2022-08-17T05:32:40.312Z,4.07
2022-08-17T05:35:49.551Z,5.10
2022-08-17T05:38:52.802Z,4.75
2022-08-17T05:41:55.941Z,3.72
2022-08-17T05:44:59.236Z,4.88
2022-08-17T05:48:02.852Z,4.47
2022-08-17T05:51:21.011Z,4.25
2022-08-17T05:54:33.282Z,4.70
2022-08-17T05:57:53.619Z,4.70
2022-08-17T06:01:20.975Z,4.13
2022-08-17T06:04:50.935Z,4.20
2022-08-17T06:08:06.862Z,4.28
2022-08-17T06:11:09.976Z,4.60
2022-08-17T06:14:16.027Z,4.60
2022-08-17T06:17:22.250Z,4.38
2022-08-17T06:20:32.224Z,4.30
2022-08-17T06:23:47.020Z,4.57
2022-08-17T06:26:52.355Z,4.10
2022-08-17T06:30:09.293Z,4.40
2022-08-17T06:33:23.797Z,4.13
2022-08-17T06:36:40.163Z,4.87
2022-08-17T06:39:58.294Z,3.83
2022-08-17T06:43:33.064Z,4.40
2022-08-17T06:46:41.595Z,4.25
2022-08-17T06:49:59.311Z,4.50
2022-08-17T06:53:35.979Z,4.40
2022-08-17T06:56:54.338Z,5.03
2022-08-17T07:00:08.348Z,4.50
2022-08-17T07:03:54.382Z,3.92
2022-08-17T07:07:27.073Z,4.55
2022-08-17T07:10:44.708Z,4.47
2022-08-17T07:14:15.203Z,5.15
2022-08-17T07:17:22.483Z,4.13
2022-08-17T07:20:51.329Z,4.75
2022-08-17T07:24:29.558Z,4.80
2022-08-17T07:27:41.916Z,4.40
2022-08-17T07:30:53.399Z,4.40
2022-08-17T07:34:03.848Z,4.80
2022-08-17T07:37:07.147Z,4.55
2022-08-17T07:40:23.039Z,4.03
2022-08-17T07:43:42.157Z,4.17
2022-08-17T07:47:09.825Z,5.00
2022-08-17T07:50:30.463Z,3.42
2022-08-17T07:53:33.759Z,5.15
2022-08-17T07:56:40.220Z,4.22
2022-08-17T08:00:08.585Z,4.20
2022-08-17T08:03:31.938Z,4.35
2022-08-17T08:06:49.105Z,3.92
2022-08-17T08:10:15.264Z,4.53
2022-08-17T08:13:21.420Z,4.30
2022-08-17T08:16:29.563Z,3.90
2022-08-17T08:19:33.721Z,4.05
2022-08-17T08:22:53.311Z,3.80
2022-08-17T08:26:09.604Z,4.10
2022-08-17T08:29:28.398Z,4.30
2022-08-17T08:32:50.384Z,4.10
2022-08-17T08:37:02.076Z,4.40
2022-08-17T08:40:20.006Z,4.10
2022-08-17T08:43:37.988Z,4.18
2022-08-17T08:46:53.324Z,3.95
2022-08-17T08:50:31.797Z,3.80
2022-08-17T08:53:48.558Z,4.55
2022-08-17T08:57:25.523Z,4.10
2022-08-17T09:00:35.773Z,4.28
2022-08-17T09:04:12.060Z,4.43
2022-08-17T09:07:34.805Z,4.20
2022-08-17T09:11:02.431Z,4.32
2022-08-17T09:14:21.824Z,4.25
2022-08-17T09:17:47.168Z,4.40
2022-08-17T09:20:59.544Z,3.80
2022-08-17T09:24:12.768Z,4.17
2022-08-17T09:27:23.672Z,3.90
2022-08-17T09:30:45.547Z,3.92
2022-08-17T09:33:51.250Z,4.50
2022-08-17T09:36:59.976Z,4.80
2022-08-17T09:40:25.637Z,4.50
2022-08-17T09:44:23.446Z,4.28
2022-08-17T09:47:32.619Z,4.60
2022-08-17T09:51:15.289Z,4.70
2022-08-17T09:54:39.994Z,4.70
2022-08-17T09:58:14.609Z,4.50
2022-08-17T10:01:26.493Z,4.20
2022-08-17T10:04:53.743Z,4.80
2022-08-17T10:07:59.748Z,4.35
2022-08-17T10:11:52.965Z,4.47
2022-08-17T10:15:07.709Z,3.87
2022-08-17T10:18:31.973Z,4.38
2022-08-17T10:22:00.984Z,4.60
2022-08-17T10:25:54.293Z,4.18
2022-08-17T10:29:09.710Z,4.15
2022-08-17T10:32:21.804Z,4.90
2022-08-17T10:35:39.754Z,3.67
2022-08-17T10:38:59.797Z,3.95
2022-08-17T10:42:39.313Z,4.38
2022-08-17T10:46:30.102Z,4.20
2022-08-17T10:49:37.039Z,4.17
2022-08-17T10:52:42.943Z,3.47
2022-08-17T10:56:12.237Z,4.13
2022-08-17T10:59:47.130Z,4.35
2022-08-17T11:02:53.264Z,3.70
2022-08-17T11:06:17.898Z,3.37
2022-08-17T11:09:48.685Z,3.90
2022-08-17T11:13:28.571Z,3.35
2022-08-17T11:16:48.009Z,3.67
2022-08-17T11:20:00.190Z,3.58
2022-08-17T11:23:18.441Z,3.87
2022-08-17T11:26:32.110Z,3.17
2022-08-17T11:30:01.432Z,3.55
2022-08-17T11:33:28.708Z,4.03
2022-08-17T11:36:38.002Z,3.78
2022-08-17T11:40:13.756Z,3.87
2022-08-17T11:43:42.899Z,3.80
2022-08-17T11:47:25.552Z,3.72
2022-08-17T11:51:12.933Z,3.67
2022-08-17T11:54:34.342Z,3.60
2022-08-17T11:57:41.065Z,3.87
2022-08-17T12:00:51.902Z,3.92
2022-08-17T12:04:16.253Z,4.35
2022-08-17T12:07:23.151Z,3.78
2022-08-17T12:10:32.885Z,4.22
2022-08-17T12:13:47.555Z,4.20
2022-08-17T12:17:02.500Z,4.05
2022-08-17T12:20:27.963Z,4.30
2022-08-17T12:24:01.378Z,3.47
2022-08-17T12:27:06.907Z,3.63
2022-08-17T12:30:14.685Z,3.70
2022-08-17T12:33:27.869Z,3.50
2022-08-17T12:36:32.655Z,3.70
2022-08-17T12:39:37.926Z,4.03
2022-08-17T12:42:58.130Z,3.85
2022-08-17T12:46:14.824Z,4.20
2022-08-17T12:49:28.097Z,3.75
2022-08-17T12:52:32.971Z,3.50
2022-08-17T12:55:38.829Z,3.45
2022-08-17T12:58:56.460Z,3.83
2022-08-17T13:02:01.196Z,3.80
2022-08-17T13:05:05.113Z,3.00
2022-08-17T13:08:21.322Z,3.28
2022-08-17T13:11:25.925Z,3.47
2022-08-17T13:14:29.664Z,3.30
2022-08-17T13:17:36.904Z,3.20
2022-08-17T13:20:41.120Z,3.90
2022-08-17T13:24:00.007Z,2.95
2022-08-17T13:27:11.341Z,3.75
2022-08-17T13:30:29.257Z,3.30
2022-08-17T13:33:43.356Z,3.17
2022-08-17T13:36:48.826Z,3.47
2022-08-17T13:39:57.592Z,3.13
2022-08-17T13:43:03.215Z,3.33
2022-08-17T13:46:12.852Z,3.25
2022-08-17T13:49:16.221Z,3.20
2022-08-17T13:52:41.352Z,3.08
2022-08-17T13:55:53.880Z,3.35
2022-08-17T13:59:07.999Z,2.80
2022-08-17T14:02:13.478Z,3.03
2022-08-17T14:05:16.772Z,2.73
2022-08-17T14:08:22.706Z,3.20
2022-08-17T14:11:25.921Z,3.03
2022-08-17T14:14:29.769Z,3.42
2022-08-17T14:17:38.453Z,2.95
2022-08-17T14:20:42.295Z,3.30
2022-08-17T14:23:49.045Z,3.08
2022-08-17T14:26:59.960Z,3.22
2022-08-17T14:30:07.854Z,2.83
2022-08-17T14:33:12.419Z,3.40
2022-08-17T14:36:15.549Z,2.97
2022-08-17T14:39:20.077Z,3.40
2022-08-17T14:42:29.613Z,3.75
2022-08-17T14:45:33.608Z,3.00
2022-08-17T14:48:38.783Z,3.38
2022-08-17T14:51:44.407Z,2.90
2022-08-17T14:54:51.464Z,2.50
2022-08-17T14:57:54.760Z,2.80
2022-08-17T15:00:59.098Z,3.28
2022-08-17T15:04:02.321Z,3.00
2022-08-17T15:07:06.498Z,2.90
2022-08-17T15:10:15.101Z,3.60
2022-08-17T15:13:24.247Z,3.08
2022-08-17T15:16:27.541Z,2.90
2022-08-17T15:19:30.723Z,3.40
2022-08-17T15:22:33.966Z,3.20
2022-08-17T15:25:37.235Z,3.50
2022-08-17T15:28:40.450Z,3.33
2022-08-17T15:31:44.091Z,3.40
2022-08-17T15:34:47.400Z,3.10
2022-08-17T15:37:50.710Z,3.00
2022-08-17T15:40:55.126Z,3.22
2022-08-17T15:43:58.430Z,3.25
2022-08-17T15:47:01.571Z,2.60
2022-08-17T15:50:07.233Z,2.80
2022-08-17T15:53:11.075Z,2.77
2022-08-17T15:56:17.943Z,3.40
2022-08-17T15:59:21.068Z,2.85
2022-08-17T16:03:45.876Z,2.95
2022-08-17T16:05:52.135Z,3.00
2022-08-17T16:08:56.229Z,2.40
2022-08-17T16:12:09.668Z,2.35
2022-08-17T16:15:13.879Z,3.00
2022-08-17T16:18:17.831Z,2.63
2022-08-17T16:21:29.456Z,3.28
2022-08-17T16:24:33.621Z,1.83
2022-08-17T16:27:36.884Z,2.22
2022-08-17T16:30:41.230Z,2.50
2022-08-17T16:34:18.025Z,2.47
2022-08-17T16:37:11.245Z,2.38
2022-08-17T16:40:18.032Z,3.77
2022-08-17T16:43:21.291Z,3.35
2022-08-17T16:46:24.415Z,2.35
2022-08-17T16:49:36.088Z,2.30
2022-08-17T16:52:42.184Z,2.38
2022-08-17T16:55:46.932Z,2.47
2022-08-17T16:58:50.866Z,2.72
2022-08-17T17:01:54.182Z,2.50
2022-08-17T17:05:13.618Z,2.88
2022-08-17T17:08:30.358Z,2.30
2022-08-17T17:11:46.678Z,2.50
2022-08-17T17:14:52.144Z,3.05
2022-08-17T17:18:06.165Z,2.42
2022-08-17T17:21:14.429Z,3.30
2022-08-17T17:24:28.321Z,2.60
2022-08-17T17:27:47.193Z,2.60
2022-08-17T17:31:03.473Z,2.80
2022-08-17T17:34:12.475Z,2.67
2022-08-17T17:37:22.470Z,2.95
2022-08-17T17:40:42.020Z,2.42
2022-08-17T17:43:47.273Z,2.53
2022-08-17T17:46:54.676Z,2.65
2022-08-17T17:50:01.633Z,2.75
2022-08-17T17:53:09.615Z,2.92
2022-08-17T17:56:43.672Z,2.97
2022-08-17T18:00:22.008Z,2.50
2022-08-17T18:03:51.589Z,2.80
2022-08-17T18:07:13.507Z,2.95
2022-08-17T18:10:54.496Z,2.65
2022-08-17T18:14:24.658Z,3.63
2022-08-17T18:17:29.901Z,2.70
2022-08-17T18:20:43.295Z,3.40
2022-08-17T18:24:02.611Z,2.85
2022-08-17T18:27:34.488Z,3.20
2022-08-17T18:30:42.348Z,3.10
2022-08-17T18:33:52.393Z,3.43
2022-08-17T18:36:56.468Z,2.83
2022-08-17T18:40:14.424Z,2.53
2022-08-17T18:43:53.069Z,3.63
2022-08-17T18:47:13.904Z,3.45
2022-08-17T18:50:27.484Z,3.37
2022-08-17T18:53:38.420Z,3.63
2022-08-17T18:56:56.605Z,3.30
2022-08-17T19:00:09.928Z,4.18
2022-08-17T19:03:20.611Z,3.58
2022-08-17T19:06:32.653Z,3.87
2022-08-17T19:10:14.921Z,3.88
2022-08-17T19:14:07.848Z,4.53
2022-08-17T19:17:20.069Z,3.72
2022-08-17T19:20:38.214Z,3.72
2022-08-17T19:23:53.449Z,3.00
2022-08-17T19:27:03.305Z,3.03
2022-08-17T19:30:14.141Z,3.22
2022-08-17T19:33:17.416Z,3.15
2022-08-17T19:36:21.952Z,2.90
2022-08-17T19:39:40.363Z,3.03
2022-08-17T19:43:00.902Z,2.30
2022-08-17T19:46:26.137Z,3.00
2022-08-17T19:49:47.278Z,2.38
2022-08-17T19:53:02.089Z,2.50
2022-08-17T19:57:02.032Z,2.43
2022-08-17T20:00:14.061Z,1.88
2022-08-17T20:03:40.728Z,2.08
2022-08-17T20:06:49.398Z,1.92
2022-08-17T20:09:58.500Z,2.20
2022-08-17T20:13:07.716Z,2.00
2022-08-17T20:16:11.975Z,2.97
2022-08-17T20:19:31.591Z,2.42
2022-08-17T20:22:55.100Z,2.15
2022-08-17T20:26:21.806Z,1.73
2022-08-17T20:29:40.219Z,1.80
2022-08-17T20:32:52.650Z,2.30
2022-08-17T20:36:20.804Z,2.45
2022-08-17T20:39:37.929Z,2.67
2022-08-17T20:42:41.117Z,3.28
2022-08-17T20:46:01.851Z,2.80
2022-08-17T20:49:27.011Z,3.20
2022-08-17T20:52:47.709Z,3.00
2022-08-17T20:55:53.248Z,2.75
2022-08-17T20:58:56.651Z,2.85
2022-08-17T21:02:19.359Z,2.10
2022-08-17T21:05:37.872Z,2.40
2022-08-17T21:09:27.671Z,2.10
2022-08-17T21:12:43.340Z,2.72
2022-08-17T21:15:58.877Z,2.30
2022-08-17T21:19:04.807Z,2.83
2022-08-17T21:22:31.077Z,2.10
2022-08-17T21:25:55.685Z,2.45
2022-08-17T21:29:30.906Z,1.98
2022-08-17T21:32:39.693Z,2.50
2022-08-17T21:36:15.976Z,2.60
2022-08-17T21:39:24.198Z,2.10
2022-08-17T21:42:36.041Z,2.80
2022-08-17T21:45:43.479Z,1.80
2022-08-17T21:48:49.303Z,2.90
2022-08-17T21:51:57.725Z,1.83
2022-08-17T21:55:02.762Z,2.53
2022-08-17T21:58:34.386Z,2.00
2022-08-17T22:01:43.030Z,2.50
2022-08-17T22:05:10.294Z,3.05
2022-08-17T22:08:23.720Z,2.40
2022-08-17T22:11:27.012Z,2.10
2022-08-17T22:14:53.296Z,2.35
2022-08-17T22:17:58.591Z,2.60
2022-08-17T22:21:05.190Z,3.10
2022-08-17T22:24:22.619Z,2.80
2022-08-17T22:27:47.069Z,3.08
2022-08-17T22:31:04.267Z,2.67
2022-08-17T22:34:13.259Z,3.00
2022-08-17T22:37:29.059Z,2.78
2022-08-17T22:40:34.455Z,2.50
2022-08-17T22:43:39.020Z,2.22
2022-08-17T22:47:11.394Z,2.72
2022-08-17T22:50:26.840Z,2.78
2022-08-17T22:53:48.832Z,2.88
2022-08-17T22:57:21.634Z,2.43
2022-08-17T23:00:35.206Z,2.30
2022-08-17T23:03:55.313Z,2.28
2022-08-17T23:06:58.606Z,2.15
2022-08-17T23:10:06.365Z,1.75
2022-08-17T23:13:12.040Z,1.90
2022-08-17T23:16:15.392Z,1.40
2022-08-17T23:19:21.068Z,2.15
2022-08-17T23:22:24.991Z,2.38
2022-08-17T23:25:31.617Z,2.60
2022-08-17T23:28:36.994Z,3.00
2022-08-17T23:31:40.912Z,2.08
2022-08-17T23:34:45.886Z,2.35
2022-08-17T23:37:49.047Z,2.30
2022-08-17T23:40:55.631Z,2.28
2022-08-17T23:44:00.455Z,1.83
2022-08-17T23:47:04.825Z,2.80
2022-08-17T23:50:09.107Z,3.20
2022-08-17T23:53:12.596Z,2.90
2022-08-17T23:56:18.427Z,2.00
2022-08-17T23:59:23.135Z,2.57
